Time;durP1;ratioP1;P1;durP2;ratioP2;P2;SDS_P1;SDS_P2;PMS_P1;PMS_P2;Temp;Humidity;BMP_temperature;BMP_pressure;BME280_temperature;BME280_humidity;BME280_pressure;Samples;Min_cycle;Max_cycle;Signal;HPM_P1;HPM_P2
2021/05/19 00:02:12;;;;;;;1.90;1.80;;;19.00;36.20;;;;;;5016979;28;20172;-78
2021/05/19 00:04:38;;;;;;;1.73;1.73;;;18.90;36.10;;;;;;5034840;28;20177;-77
2021/05/19 00:07:03;;;;;;;1.80;1.70;;;19.00;36.20;;;;;;5034200;28;20537;-77
2021/05/19 00:09:29;;;;;;;1.90;1.90;;;18.90;36.10;;;;;;5016645;28;20246;-77
2021/05/19 00:11:54;;;;;;;2.00;1.90;;;19.00;36.20;;;;;;5034580;28;20619;-77
2021/05/19 00:14:20;;;;;;;1.90;1.80;;;19.00;36.20;;;;;;5034405;28;20628;-76
2021/05/19 00:16:48;;;;;;;2.00;1.90;;;19.00;36.20;;;;;;5034508;28;20632;-77
2021/05/19 00:19:14;;;;;;;1.97;1.83;;;18.90;36.10;;;;;;5016600;28;20234;-77
2021/05/19 00:21:40;;;;;;;1.70;1.60;;;18.90;36.10;;;;;;5034178;28;20518;-77
2021/05/19 00:24:06;;;;;;;1.83;1.73;;;18.90;36.10;;;;;;5034124;28;20487;-77
2021/05/19 00:26:32;;;;;;;1.90;1.90;;;19.00;36.20;;;;;;5034180;28;20268;-77
2021/05/19 00:28:59;;;;;;;1.77;1.77;;;18.90;36.10;;;;;;5034078;28;20442;-77
2021/05/19 00:31:29;;;;;;;2.00;1.90;;;18.90;36.10;;;;;;5033982;28;20951;-77
2021/05/19 00:33:55;;;;;;;1.97;1.97;;;18.90;36.10;;;;;;5034163;28;20419;-78
2021/05/19 00:36:20;;;;;;;1.60;1.60;;;18.90;36.10;;;;;;5034119;28;20455;-77
2021/05/19 00:38:46;;;;;;;1.80;1.80;;;18.90;36.10;;;;;;5033924;28;20172;-77
2021/05/19 00:41:15;;;;;;;1.70;1.70;;;18.90;36.10;;;;;;5034042;28;20196;-77
2021/05/19 00:43:41;;;;;;;1.73;1.73;;;18.90;36.10;;;;;;5033808;28;20188;-78
2021/05/19 00:46:07;;;;;;;2.13;2.03;;;18.90;36.10;;;;;;5015992;28;20427;-77
2021/05/19 00:48:34;;;;;;;2.07;1.97;;;18.90;36.00;;;;;;5033928;28;20418;-77
2021/05/19 00:51:01;;;;;;;2.00;1.90;;;18.90;36.10;;;;;;5034158;28;20521;-77
2021/05/19 00:53:26;;;;;;;1.90;1.90;;;18.90;36.00;;;;;;5016492;28;21236;-77
2021/05/19 00:55:52;;;;;;;2.07;1.93;;;18.90;36.10;;;;;;5034715;28;20459;-77
2021/05/19 00:58:18;;;;;;;1.90;1.90;;;18.90;36.10;;;;;;5035444;28;20177;-77
2021/05/19 01:00:44;;;;;;;1.70;1.70;;;18.90;36.10;;;;;;5035120;28;20208;-76
2021/05/19 01:03:09;;;;;;;1.80;1.80;;;18.90;36.00;;;;;;5017426;28;20239;-77
2021/05/19 01:11:07;;;;;;;1.93;1.90;;;18.90;36.00;;;;;;5035504;28;20489;-76
2021/05/19 01:13:34;;;;;;;2.03;1.93;;;18.80;35.90;;;;;;5035467;28;20427;-77
2021/05/19 01:16:00;;;;;;;1.90;1.90;;;18.90;36.00;;;;;;5034341;28;20451;-77
2021/05/19 01:18:27;;;;;;;1.90;1.90;;;18.90;36.00;;;;;;5035093;28;20415;-77
2021/05/19 01:20:55;;;;;;;2.30;2.20;;;18.90;36.00;;;;;;5034947;28;20423;-77
2021/05/19 01:23:21;;;;;;;1.90;1.80;;;18.90;36.00;;;;;;5035430;28;20457;-77
2021/05/19 01:25:46;;;;;;;1.80;1.80;;;18.90;35.90;;;;;;5017480;28;20975;-77
2021/05/19 01:28:12;;;;;;;2.13;2.07;;;18.80;35.80;;;;;;5035131;28;20426;-76
2021/05/19 01:30:38;;;;;;;2.13;2.03;;;18.80;35.80;;;;;;5034351;28;20204;-77
2021/05/19 01:33:04;;;;;;;2.20;2.10;;;18.80;35.80;;;;;;5034526;28;20176;-77
2021/05/19 01:35:29;;;;;;;1.97;1.90;;;18.90;36.00;;;;;;5034647;28;20239;-77
2021/05/19 01:41:16;;;;;;;1.60;1.60;;;18.80;35.80;;;;;;5034639;28;20203;-77
2021/05/19 01:43:42;;;;;;;2.00;2.00;;;18.80;35.80;;;;;;5034555;28;20436;-77
2021/05/19 01:46:07;;;;;;;2.00;1.90;;;18.90;35.90;;;;;;5016183;28;20730;-77
2021/05/19 01:48:34;;;;;;;1.70;1.60;;;18.90;35.90;;;;;;5034141;28;20178;-76
2021/05/19 01:51:02;;;;;;;2.07;1.97;;;18.80;35.80;;;;;;5016125;28;20718;-77
2021/05/19 01:53:30;;;;;;;1.70;1.70;;;18.80;35.80;;;;;;5034300;28;20414;-77
2021/05/19 01:55:56;;;;;;;1.80;1.80;;;18.80;35.80;;;;;;5033622;28;20459;-77
2021/05/19 01:58:22;;;;;;;1.77;1.77;;;18.80;35.80;;;;;;5034448;28;20407;-77
2021/05/19 02:00:47;;;;;;;2.30;2.10;;;18.80;35.70;;;;;;5033952;28;20427;-77
2021/05/19 02:03:13;;;;;;;2.17;2.17;;;18.80;35.80;;;;;;5016064;28;20416;-77
2021/05/19 02:05:39;;;;;;;1.80;1.80;;;18.80;35.70;;;;;;5034542;28;20206;-77
2021/05/19 02:08:06;;;;;;;3.90;2.10;;;18.80;35.80;;;;;;5038132;28;20621;-76
2021/05/19 02:10:33;;;;;;;1.90;1.90;;;18.80;35.80;;;;;;5037733;28;20196;-78
2021/05/19 02:13:09;;;;;;;2.00;2.00;;;18.80;35.70;;;;;;5037790;28;20419;-77
2021/05/19 02:15:35;;;;;;;1.80;1.80;;;18.80;35.70;;;;;;5037475;28;20968;-77
2021/05/19 02:18:02;;;;;;;1.90;1.80;;;18.80;35.70;;;;;;5020377;28;20411;-77
2021/05/19 02:20:29;;;;;;;2.20;2.10;;;18.80;35.70;;;;;;5019759;28;20442;-77
2021/05/19 02:22:55;;;;;;;1.73;1.73;;;18.80;35.90;;;;;;5038041;28;20407;-77
2021/05/19 02:25:23;;;;;;;1.90;1.90;;;18.80;35.70;;;;;;5019145;28;20829;-77
2021/05/19 02:27:50;;;;;;;1.90;1.90;;;18.80;35.60;;;;;;5037404;28;20902;-76
2021/05/19 02:30:18;;;;;;;2.13;2.03;;;18.80;35.60;;;;;;5019358;28;20442;-76
2021/05/19 02:32:44;;;;;;;1.80;1.80;;;18.80;35.60;;;;;;5037059;28;20514;-77
2021/05/19 02:35:10;;;;;;;2.00;1.90;;;18.80;35.60;;;;;;5036331;28;20538;-77
2021/05/19 02:37:37;;;;;;;2.00;1.90;;;18.70;35.50;;;;;;5037175;28;20515;-77
2021/05/19 02:40:07;;;;;;;1.77;1.77;;;18.80;35.60;;;;;;5019152;28;20188;-77
2021/05/19 02:42:32;;;;;;;2.00;2.00;;;18.80;35.60;;;;;;5036680;28;20435;-77
2021/05/19 02:44:58;;;;;;;1.90;1.80;;;18.80;35.60;;;;;;5018909;28;20419;-76
2021/05/19 02:47:24;;;;;;;2.00;1.90;;;18.80;35.60;;;;;;5036187;28;20551;-77
2021/05/19 02:49:49;;;;;;;2.13;2.10;;;18.70;35.50;;;;;;5036624;28;20592;-76
2021/05/19 02:52:15;;;;;;;1.83;1.80;;;18.80;35.60;;;;;;5036297;28;20176;-76
2021/05/19 02:54:41;;;;;;;2.17;2.07;;;18.80;35.60;;;;;;5036022;28;20278;-77
2021/05/19 02:57:07;;;;;;;1.90;1.90;;;18.80;35.60;;;;;;5036387;28;20165;-77
2021/05/19 02:59:33;;;;;;;1.53;1.53;;;18.80;35.60;;;;;;5036621;28;20722;-77
2021/05/19 03:01:58;;;;;;;2.10;2.00;;;18.70;35.50;;;;;;5036560;28;20497;-77
2021/05/19 03:04:24;;;;;;;2.23;2.13;;;18.80;35.60;;;;;;5036969;28;20219;-77
2021/05/19 03:06:50;;;;;;;1.90;1.80;;;18.70;35.50;;;;;;5036526;28;20238;-77
2021/05/19 03:09:15;;;;;;;2.03;2.00;;;18.70;35.50;;;;;;5036302;28;20720;-77
2021/05/19 03:11:41;;;;;;;1.90;1.90;;;18.70;35.50;;;;;;5036010;28;20431;-77
2021/05/19 03:14:07;;;;;;;1.97;1.87;;;18.70;35.50;;;;;;5036103;28;20192;-77
2021/05/19 03:16:33;;;;;;;1.97;1.87;;;18.70;35.50;;;;;;5035545;28;20196;-77
2021/05/19 03:18:59;;;;;;;1.87;1.87;;;18.70;35.60;;;;;;5035831;28;20173;-77
2021/05/19 03:21:25;;;;;;;1.87;1.87;;;18.70;35.50;;;;;;5018251;28;21071;-77
2021/05/19 03:23:50;;;;;;;1.87;1.80;;;18.70;35.50;;;;;;5035826;28;20411;-77
2021/05/19 03:26:16;;;;;;;1.80;1.80;;;18.70;35.50;;;;;;5035683;28;20176;-77
2021/05/19 03:28:42;;;;;;;1.90;1.90;;;18.70;35.60;;;;;;5035679;28;20187;-77
2021/05/19 03:31:08;;;;;;;1.93;1.93;;;18.70;35.50;;;;;;5035457;28;20200;-77
2021/05/19 03:33:35;;;;;;;2.40;2.30;;;18.70;35.50;;;;;;5035095;28;20482;-77
2021/05/19 03:36:00;;;;;;;1.90;1.90;;;18.70;35.50;;;;;;5017248;28;20455;-77
2021/05/19 03:38:26;;;;;;;1.80;1.80;;;18.70;35.50;;;;;;5035281;28;20471;-77
2021/05/19 03:40:51;;;;;;;1.90;1.90;;;18.70;35.50;;;;;;5035275;28;20199;-77
2021/05/19 03:43:17;;;;;;;1.93;1.93;;;18.70;35.50;;;;;;5035238;28;20227;-77
2021/05/19 03:45:43;;;;;;;2.10;2.10;;;18.70;35.50;;;;;;5034741;28;20207;-77
2021/05/19 03:48:09;;;;;;;1.90;1.90;;;18.70;35.50;;;;;;5017086;28;20211;-77
2021/05/19 03:50:37;;;;;;;2.00;1.90;;;18.70;35.50;;;;;;5017320;28;20648;-77
2021/05/19 03:53:04;;;;;;;1.90;1.90;;;18.70;35.50;;;;;;5034803;28;20537;-77
2021/05/19 03:55:29;;;;;;;2.07;2.07;;;18.70;35.50;;;;;;5034586;28;20470;-77
2021/05/19 03:57:56;;;;;;;1.80;1.80;;;18.70;35.50;;;;;;5033751;28;20418;-76
2021/05/19 04:00:28;;;;;;;2.00;2.00;;;18.70;35.50;;;;;;5034577;28;20435;-77
2021/05/19 04:02:53;;;;;;;2.07;1.97;;;18.70;35.50;;;;;;5016587;28;20909;-77
2021/05/19 04:05:25;;;;;;;1.80;1.80;;;18.70;35.50;;;;;;5016779;28;20510;-77
2021/05/19 04:07:55;;;;;;;2.00;1.90;;;18.70;35.50;;;;;;5034667;28;20654;-77
2021/05/19 04:10:24;;;;;;;1.93;1.90;;;18.70;35.50;;;;;;5034496;28;21001;-77
2021/05/19 04:12:51;;;;;;;1.90;1.90;;;18.70;35.60;;;;;;5034595;28;20407;-77
2021/05/19 04:15:18;;;;;;;1.63;1.63;;;18.70;35.50;;;;;;5034327;28;20815;-77
2021/05/19 04:17:44;;;;;;;1.67;1.67;;;18.70;35.60;;;;;;5034384;28;20411;-77
2021/05/19 04:20:11;;;;;;;3.53;1.80;;;18.70;35.50;;;;;;5038085;28;20439;-78
2021/05/19 04:22:37;;;;;;;2.00;1.90;;;18.70;35.60;;;;;;5042300;28;20223;-79
2021/05/19 04:25:05;;;;;;;2.00;1.90;;;18.70;35.70;;;;;;5021866;28;20466;-78
2021/05/19 04:27:30;;;;;;;5.10;2.90;;;18.80;36.10;;;;;;5023047;28;20439;-78
2021/05/19 04:29:56;;;;;;;3.13;2.83;;;18.80;36.60;;;;;;5035577;28;20977;-78
2021/05/19 04:32:21;;;;;;;2.90;2.60;;;18.90;36.70;;;;;;5037999;28;20181;-77
2021/05/19 04:34:48;;;;;;;3.43;2.50;;;18.90;36.60;;;;;;5039861;28;20216;-78
2021/05/19 04:37:17;;;;;;;2.30;2.20;;;18.90;36.70;;;;;;5022182;28;20557;-77
2021/05/19 04:39:47;;;;;;;3.33;2.40;;;19.00;37.20;;;;;;5022221;28;20461;-78
2021/05/19 04:42:12;;;;;;;2.67;2.30;;;19.00;37.60;;;;;;5037630;28;20439;-78
2021/05/19 04:44:38;;;;;;;2.83;2.63;;;19.10;37.40;;;;;;5039455;28;20180;-78
2021/05/19 04:47:04;;;;;;;2.40;2.10;;;19.10;37.10;;;;;;5039546;28;20173;-78
2021/05/19 04:49:29;;;;;;;3.70;3.00;;;19.20;37.20;;;;;;5017462;28;20327;-77
2021/05/19 04:51:55;;;;;;;2.70;2.50;;;19.30;37.30;;;;;;5033231;28;20203;-78
2021/05/19 04:54:21;;;;;;;3.27;3.03;;;19.30;37.20;;;;;;5034963;28;20184;-78
2021/05/19 04:56:46;;;;;;;3.23;2.50;;;19.40;36.90;;;;;;5016563;28;20173;-78
2021/05/19 04:59:12;;;;;;;2.90;2.70;;;19.40;36.50;;;;;;5034999;28;20173;-78
2021/05/19 05:01:38;;;;;;;2.93;2.70;;;19.40;36.40;;;;;;5034363;28;20431;-78
2021/05/19 05:04:04;;;;;;;3.63;3.07;;;19.50;36.80;;;;;;5037352;28;20687;-79
2021/05/19 05:06:30;;;;;;;2.77;2.57;;;19.50;37.30;;;;;;5019982;28;20666;-78
2021/05/19 05:08:56;;;;;;;3.23;2.97;;;19.50;37.40;;;;;;5037718;28;20422;-79
2021/05/19 05:11:24;;;;;;;4.40;2.90;;;19.50;37.40;;;;;;5005799;28;20204;-79
2021/05/19 05:13:50;;;;;;;3.50;3.20;;;19.60;37.40;;;;;;5005142;28;20427;-79
2021/05/19 05:16:16;;;;;;;3.60;3.30;;;19.60;37.40;;;;;;5005952;28;20549;-79
2021/05/19 05:18:43;;;;;;;3.33;3.13;;;19.60;37.40;;;;;;5005967;28;20443;-79
2021/05/19 05:21:12;;;;;;;3.83;3.53;;;19.60;37.80;;;;;;5020982;28;20431;-80
2021/05/19 05:23:46;;;;;;;9.10;3.93;;;19.60;38.00;;;;;;5020941;28;20422;-82
2021/05/19 05:26:16;;;;;;;4.30;3.57;;;19.60;38.50;;;;;;5039115;28;20422;-82
2021/05/19 05:31:57;;;;;;;9.90;3.50;;;19.60;38.70;;;;;;5023466;28;20434;-78
2021/05/19 05:34:24;;;;;;;4.40;3.63;;;19.60;38.80;;;;;;5016679;28;20431;-81
2021/05/19 05:36:50;;;;;;;3.70;3.40;;;19.70;38.80;;;;;;5005466;28;20928;-81
2021/05/19 05:39:19;;;;;;;11.90;4.37;;;19.70;38.70;;;;;;5020714;28;20481;-81
2021/05/19 05:41:49;;;;;;;11.00;4.17;;;19.60;38.80;;;;;;5013945;28;20581;-78
2021/05/19 05:44:15;;;;;;;6.40;4.13;;;19.60;38.90;;;;;;5015500;28;20455;-81
2021/05/19 05:46:41;;;;;;;5.97;3.97;;;19.70;39.00;;;;;;5031674;28;20496;-78
2021/05/19 05:49:07;;;;;;;6.90;3.60;;;19.70;38.70;;;;;;5013442;28;20181;-78
2021/05/19 05:51:33;;;;;;;9.30;3.97;;;19.60;38.10;;;;;;5031937;28;20196;-78
2021/05/19 05:53:59;;;;;;;8.63;4.60;;;19.60;37.90;;;;;;5014027;28;20446;-78
2021/05/19 05:56:24;;;;;;;5.37;3.63;;;19.50;37.60;;;;;;5032121;28;20954;-77
2021/05/19 05:58:50;;;;;;;4.47;3.20;;;19.50;37.40;;;;;;5014317;28;20248;-78
2021/05/19 06:01:16;;;;;;;4.53;3.60;;;19.40;36.50;;;;;;5013502;28;20204;-76
2021/05/19 06:03:41;;;;;;;4.20;3.60;;;19.40;37.00;;;;;;5031098;28;20172;-80
2021/05/19 06:06:07;;;;;;;3.87;3.50;;;19.40;36.80;;;;;;5013883;28;20224;-79
2021/05/19 06:08:40;;;;;;;4.30;3.33;;;19.40;36.80;;;;;;5030395;28;20179;-77
2021/05/19 06:11:07;;;;;;;4.13;3.80;;;19.30;36.70;;;;;;5013122;28;20196;-80
2021/05/19 06:13:41;;;;;;;5.00;3.90;;;19.30;36.80;;;;;;5031382;28;20415;-82
2021/05/19 06:16:07;;;;;;;3.90;3.60;;;19.30;36.70;;;;;;5013074;28;20465;-78
2021/05/19 06:18:35;;;;;;;3.30;3.10;;;19.30;36.70;;;;;;5030730;28;20490;-79
2021/05/19 06:21:01;;;;;;;3.80;3.50;;;19.30;36.80;;;;;;5013348;28;20275;-80
2021/05/19 06:23:26;;;;;;;4.57;3.70;;;19.30;36.80;;;;;;5030050;28;20446;-78
2021/05/19 06:25:52;;;;;;;4.83;3.53;;;19.20;36.60;;;;;;5013259;28;20242;-78
2021/05/19 06:28:17;;;;;;;3.90;3.50;;;19.20;36.70;;;;;;5013271;28;20181;-82
2021/05/19 06:30:43;;;;;;;4.80;3.70;;;19.20;36.60;;;;;;5030790;28;20276;-77
2021/05/19 06:33:09;;;;;;;3.70;3.40;;;19.20;36.70;;;;;;5031920;28;20176;-78
2021/05/19 06:35:34;;;;;;;3.33;3.13;;;19.20;36.60;;;;;;5035644;28;20197;-79
2021/05/19 06:38:00;;;;;;;3.50;3.17;;;19.10;36.60;;;;;;5032684;28;20763;-79
2021/05/19 06:40:26;;;;;;;4.03;3.57;;;19.10;36.50;;;;;;5013467;28;20203;-78
2021/05/19 06:42:51;;;;;;;5.77;4.00;;;19.20;36.80;;;;;;5013833;28;20268;-79
2021/05/19 06:45:17;;;;;;;7.77;5.10;;;19.20;36.80;;;;;;5030892;28;20665;-79
2021/05/19 06:47:42;;;;;;;5.40;4.17;;;19.30;36.90;;;;;;5014184;28;20619;-79
2021/05/19 06:50:09;;;;;;;4.17;3.80;;;19.30;36.80;;;;;;5013848;28;20307;-80
2021/05/19 06:52:35;;;;;;;5.23;3.60;;;19.40;36.70;;;;;;5038560;28;20176;-79
2021/05/19 06:55:02;;;;;;;12.30;4.00;;;19.40;36.70;;;;;;5038703;28;20470;-81
2021/05/19 06:57:27;;;;;;;8.63;3.60;;;19.50;36.90;;;;;;5034797;28;20171;-78
2021/05/19 06:59:53;;;;;;;3.63;3.20;;;19.50;36.80;;;;;;5034651;28;20704;-81
2021/05/19 07:02:19;;;;;;;6.57;3.57;;;19.50;36.60;;;;;;5016837;28;20172;-80
2021/05/19 07:04:44;;;;;;;3.83;3.40;;;19.50;36.50;;;;;;5034635;28;20176;-78
2021/05/19 07:07:10;;;;;;;3.63;3.17;;;19.50;36.60;;;;;;5017330;28;20238;-79
2021/05/19 07:09:36;;;;;;;4.90;4.50;;;19.50;36.80;;;;;;5036834;28;20234;-78
2021/05/19 07:12:03;;;;;;;4.70;3.27;;;19.50;36.80;;;;;;5034506;28;20200;-79
2021/05/19 07:14:29;;;;;;;10.70;3.50;;;19.60;36.80;;;;;;5034626;28;20510;-80
2021/05/19 07:16:55;;;;;;;2.80;2.57;;;19.60;36.90;;;;;;5034258;28;20473;-79
2021/05/19 07:19:22;;;;;;;3.60;3.40;;;19.60;36.80;;;;;;5016523;28;21098;-77
2021/05/19 07:21:49;;;;;;;8.07;3.57;;;19.60;36.80;;;;;;5015150;28;20431;-79
2021/05/19 07:24:15;;;;;;;4.50;3.80;;;19.60;36.80;;;;;;5015309;28;20408;-77
2021/05/19 07:26:42;;;;;;;4.10;3.43;;;19.70;37.00;;;;;;5032902;28;20763;-78
2021/05/19 07:29:08;;;;;;;3.83;3.50;;;19.70;36.80;;;;;;5014821;28;20426;-78
2021/05/19 07:31:34;;;;;;;3.40;3.00;;;19.70;36.80;;;;;;5014446;28;20439;-78
2021/05/19 07:34:01;;;;;;;3.73;3.00;;;19.70;36.80;;;;;;5032710;28;20411;-78
2021/05/19 07:36:26;;;;;;;3.50;3.30;;;19.70;36.80;;;;;;5014731;28;20455;-78
2021/05/19 07:38:53;;;;;;;3.43;3.13;;;19.70;36.70;;;;;;5031065;28;20477;-78
2021/05/19 07:41:20;;;;;;;4.13;3.30;;;19.70;36.90;;;;;;5032306;28;20730;-79
2021/05/19 07:43:45;;;;;;;6.00;3.37;;;19.70;36.80;;;;;;5032615;28;20450;-78
2021/05/19 07:46:11;;;;;;;3.50;3.20;;;19.70;36.70;;;;;;5031912;28;20419;-78
2021/05/19 07:48:36;;;;;;;3.77;3.47;;;19.70;36.80;;;;;;5032405;28;20173;-78
2021/05/19 07:51:02;;;;;;;4.67;3.33;;;19.70;36.70;;;;;;5031367;28;20256;-77
2021/05/19 07:53:28;;;;;;;3.83;3.50;;;19.70;36.80;;;;;;5032205;28;20288;-78
2021/05/19 07:58:34;;;;;;;3.43;3.13;;;19.80;36.80;;;;;;5033060;28;20259;-78
2021/05/19 08:03:38;;;;;;;3.27;3.00;;;19.80;36.80;;;;;;5033414;28;20784;-79
2021/05/19 08:06:04;;;;;;;2.77;2.60;;;19.80;36.80;;;;;;5014659;28;20411;-78
2021/05/19 08:08:30;;;;;;;3.47;3.27;;;19.70;36.60;;;;;;5015681;28;20427;-79
2021/05/19 08:10:56;;;;;;;3.83;3.33;;;19.80;36.80;;;;;;5014931;28;20434;-77
2021/05/19 08:13:22;;;;;;;3.10;2.90;;;19.70;36.70;;;;;;5033045;28;20226;-79
2021/05/19 08:15:48;;;;;;;3.67;3.33;;;19.80;36.80;;;;;;5033391;28;20204;-80
2021/05/19 08:18:14;;;;;;;3.30;3.00;;;19.80;36.80;;;;;;5032793;28;20415;-79
2021/05/19 08:20:40;;;;;;;3.43;3.13;;;19.80;36.80;;;;;;5033054;28;20797;-79
2021/05/19 08:23:06;;;;;;;3.00;2.80;;;19.80;36.80;;;;;;5014787;28;20191;-80
2021/05/19 08:25:32;;;;;;;3.27;2.97;;;19.80;36.80;;;;;;5030974;28;20180;-80
2021/05/19 08:27:58;;;;;;;3.53;3.23;;;19.80;36.80;;;;;;5032345;28;20418;-79
2021/05/19 08:30:25;;;;;;;3.53;3.23;;;19.80;36.70;;;;;;5032511;28;20489;-79
2021/05/19 08:32:54;;;;;;;8.17;3.17;;;19.80;36.80;;;;;;5032476;28;20404;-78
2021/05/19 08:35:20;;;;;;;5.17;3.13;;;19.80;36.80;;;;;;5031893;28;21015;-77
2021/05/19 08:37:45;;;;;;;3.10;2.90;;;19.80;36.80;;;;;;5032076;28;20442;-80
2021/05/19 08:40:11;;;;;;;3.17;3.00;;;19.80;36.80;;;;;;5031694;28;20251;-78
2021/05/19 08:42:38;;;;;;;4.13;3.27;;;19.80;36.80;;;;;;5032482;28;20193;-79
2021/05/19 08:45:09;;;;;;;3.60;3.30;;;19.80;36.80;;;;;;5031149;28;20416;-78
2021/05/19 08:47:34;;;;;;;3.10;2.90;;;19.80;37.00;;;;;;5032672;28;20442;-80
2021/05/19 08:50:02;;;;;;;5.03;3.37;;;19.90;36.90;;;;;;5032300;28;20427;-78
2021/05/19 08:52:28;;;;;;;5.70;3.50;;;19.80;36.80;;;;;;5051523;28;20267;-78
2021/05/19 08:54:55;;;;;;;4.43;3.10;;;19.80;36.80;;;;;;5052346;28;20533;-78
2021/05/19 08:57:21;;;;;;;5.37;3.20;;;19.90;36.90;;;;;;5034796;28;20183;-80
2021/05/19 08:59:47;;;;;;;3.23;2.93;;;19.90;36.90;;;;;;5051768;28;20476;-77
2021/05/19 09:02:17;;;;;;;3.10;2.90;;;19.90;36.90;;;;;;5050788;28;20394;-78
2021/05/19 09:04:44;;;;;;;4.57;3.83;;;19.90;36.90;;;;;;5051095;28;20187;-80
2021/05/19 09:07:18;;;;;;;3.50;3.30;;;19.90;37.20;;;;;;5050485;28;20410;-79
2021/05/19 09:09:44;;;;;;;3.00;2.90;;;19.90;37.20;;;;;;5033008;28;20418;-79
2021/05/19 09:12:12;;;;;;;5.00;2.80;;;19.90;37.80;;;;;;5050920;28;20893;-80
2021/05/19 09:15:04;;;;;;;3.20;2.97;;;19.90;37.20;;;;;;5050689;28;20176;-80
2021/05/19 09:17:31;;;;;;;3.20;2.90;;;19.90;37.10;;;;;;5032967;28;20429;-80
2021/05/19 09:20:08;;;;;;;3.13;2.93;;;19.90;37.10;;;;;;5050945;28;20422;-78
2021/05/19 09:22:36;;;;;;;3.00;2.63;;;19.90;37.10;;;;;;5032712;28;20445;-78
2021/05/19 09:25:17;;;;;;;3.43;3.23;;;19.90;37.10;;;;;;5050610;28;20411;-78
2021/05/19 09:27:44;;;;;;;3.40;3.20;;;19.90;37.10;;;;;;5050640;28;20403;-77
2021/05/19 09:30:11;;;;;;;3.33;3.13;;;19.90;37.20;;;;;;5050635;28;20466;-78
2021/05/19 09:32:39;;;;;;;3.40;3.10;;;19.90;37.40;;;;;;5051235;28;20403;-79
2021/05/19 09:35:07;;;;;;;4.50;4.10;;;19.90;37.20;;;;;;5032698;28;20454;-79
2021/05/19 09:37:34;;;;;;;3.27;2.93;;;19.90;37.20;;;;;;5050720;28;20398;-78
2021/05/19 09:40:04;;;;;;;3.00;2.80;;;19.90;37.10;;;;;;5033105;28;20426;-78
2021/05/19 09:42:36;;;;;;;2.87;2.67;;;20.00;37.10;;;;;;5050949;28;20429;-77
2021/05/19 09:45:22;;;;;;;3.50;3.20;;;20.00;37.10;;;;;;5050458;28;20409;-78
2021/05/19 09:47:48;;;;;;;3.40;3.10;;;20.00;37.20;;;;;;5033043;28;20479;-79
2021/05/19 09:50:16;;;;;;;2.93;2.77;;;20.00;37.10;;;;;;5050642;28;20497;-76
2021/05/19 09:53:01;;;;;;;3.33;3.10;;;20.00;37.10;;;;;;5050501;28;20741;-77
2021/05/19 09:55:27;;;;;;;3.57;3.37;;;20.00;37.00;;;;;;5049965;28;20515;-77
2021/05/19 09:57:53;;;;;;;3.70;3.40;;;20.00;37.10;;;;;;5050339;28;20406;-77
2021/05/19 10:00:26;;;;;;;3.20;3.00;;;20.00;37.10;;;;;;5051147;28;20188;-78
2021/05/19 10:02:53;;;;;;;5.10;3.20;;;20.00;37.10;;;;;;5033117;28;20204;-80
2021/05/19 10:05:23;;;;;;;3.70;3.40;;;20.00;37.10;;;;;;5033006;28;21313;-77
2021/05/19 10:07:50;;;;;;;6.30;3.00;;;20.00;37.00;;;;;;5051767;28;20561;-78
2021/05/19 10:10:16;;;;;;;3.30;3.10;;;20.00;37.10;;;;;;5037735;28;20795;-78
2021/05/19 10:12:42;;;;;;;3.43;3.13;;;20.00;37.10;;;;;;5055300;28;20489;-80
2021/05/19 10:19:25;;;;;;;2.80;2.70;;;20.00;37.10;;;;;;5001479;28;20422;-81
2021/05/19 10:22:09;;;;;;;3.37;3.17;;;20.00;37.20;;;;;;5052650;28;20430;-78
2021/05/19 10:24:46;;;;;;;3.33;3.13;;;20.10;37.30;;;;;;5036134;28;20929;-78
2021/05/19 10:27:14;;;;;;;3.80;3.60;;;20.10;37.30;;;;;;5052187;28;20455;-77
2021/05/19 10:29:58;;;;;;;2.67;2.57;;;20.10;37.50;;;;;;5056573;28;20802;-79
2021/05/19 10:32:34;;;;;;;2.60;2.50;;;20.10;37.60;;;;;;5056820;28;20567;-76
2021/05/19 10:35:08;;;;;;;3.10;2.90;;;20.10;37.90;;;;;;5055592;28;20496;-80
2021/05/19 10:37:46;;;;;;;3.27;3.17;;;20.20;38.10;;;;;;5053223;28;20402;-79
2021/05/19 10:40:13;;;;;;;3.80;3.50;;;20.20;37.80;;;;;;5058606;28;20479;-78
2021/05/19 10:42:43;;;;;;;3.10;2.90;;;20.20;37.70;;;;;;5060988;28;20430;-78
2021/05/19 10:45:15;;;;;;;2.63;2.53;;;20.20;37.50;;;;;;5060745;28;20459;-78
2021/05/19 10:47:42;;;;;;;3.20;3.00;;;20.10;37.50;;;;;;5061004;28;20427;-78
2021/05/19 10:50:21;;;;;;;2.90;2.70;;;20.20;38.30;;;;;;5042739;28;20226;-79
2021/05/19 10:58:43;;;;;;;3.50;3.30;;;20.70;40.00;;;;;;5038597;28;20409;-82
2021/05/19 11:01:10;;;;;;;3.47;3.28;;;20.80;40.00;;;;;;5021159;28;20479;-78
2021/05/19 11:03:41;;;;;;;3.50;3.30;;;21.00;39.70;;;;;;5035581;28;20176;-77
2021/05/19 11:06:09;;;;;;;3.00;2.80;;;21.00;39.70;;;;;;5035637;28;20849;-81
2021/05/19 11:08:36;;;;;;;3.40;3.10;;;21.20;39.80;;;;;;5018634;28;20427;-79
2021/05/19 11:11:33;;;;;;;3.77;3.10;;;21.30;40.00;;;;;;5017396;28;20437;-79
2021/05/19 11:17:03;;;;;;;3.33;3.13;;;21.50;41.00;;;;;;5035636;28;20438;-81
2021/05/19 11:19:41;;;;;;;3.83;3.30;;;21.60;39.70;;;;;;5017597;28;20423;-79
2021/05/19 11:22:21;;;;;;;4.10;3.80;;;21.60;39.90;;;;;;5017219;28;20408;-79
2021/05/19 11:25:14;;;;;;;3.37;3.13;;;21.60;41.50;;;;;;5034640;28;20403;-79
2021/05/19 11:27:45;;;;;;;2.83;2.70;;;21.70;41.60;;;;;;5035038;28;20527;-79
2021/05/19 11:30:28;;;;;;;3.17;2.97;;;21.70;41.10;;;;;;5033913;28;20803;-77
2021/05/19 11:33:06;;;;;;;3.00;2.80;;;21.80;41.80;;;;;;5031910;28;20418;-77
2021/05/19 11:35:53;;;;;;;3.53;3.27;;;21.80;41.70;;;;;;5032473;28;20494;-78
2021/05/19 11:38:20;;;;;;;3.87;3.50;;;21.90;42.00;;;;;;5033541;28;20416;-79
2021/05/19 11:40:50;;;;;;;3.70;3.40;;;21.90;42.00;;;;;;5033774;28;20447;-77
2021/05/19 11:43:35;;;;;;;6.23;4.00;;;21.90;42.00;;;;;;5032157;28;20504;-79
2021/05/19 11:46:01;;;;;;;5.63;3.20;;;22.00;42.10;;;;;;5032073;28;20510;-77
2021/05/19 11:48:30;;;;;;;3.57;3.27;;;22.00;41.10;;;;;;5032282;28;20941;-77
2021/05/19 11:50:57;;;;;;;5.03;3.20;;;22.00;42.00;;;;;;5034014;28;20203;-78
2021/05/19 11:53:34;;;;;;;4.90;3.43;;;22.00;41.40;;;;;;5033304;28;20422;-78
2021/05/19 11:56:00;;;;;;;3.80;3.60;;;22.00;42.00;;;;;;5017010;28;20512;-78
2021/05/19 11:58:32;;;;;;;3.83;3.50;;;22.00;42.10;;;;;;5038092;28;20419;-79
2021/05/19 12:01:10;;;;;;;5.00;3.67;;;22.00;42.10;;;;;;5017033;28;20503;-77
2021/05/19 12:03:41;;;;;;;3.63;3.33;;;22.00;41.80;;;;;;5033658;28;20403;-78
2021/05/19 12:06:40;;;;;;;3.47;3.27;;;22.00;42.10;;;;;;5031250;28;20423;-77
2021/05/19 12:09:08;;;;;;;3.92;3.63;;;22.00;42.10;;;;;;5004660;28;20428;-76
2021/05/19 12:11:41;;;;;;;3.92;3.72;;;22.10;42.20;;;;;;5013850;28;20429;-78
2021/05/19 12:14:12;;;;;;;4.43;3.87;;;22.10;41.80;;;;;;5013942;28;20177;-77
2021/05/19 12:16:56;;;;;;;3.93;3.60;;;22.10;42.00;;;;;;5031952;28;20839;-78
2021/05/19 12:19:26;;;;;;;3.63;3.33;;;22.00;42.00;;;;;;5012607;28;20424;-77
2021/05/19 12:22:14;;;;;;;4.40;4.00;;;22.00;41.80;;;;;;5010994;28;20494;-77
2021/05/19 12:24:40;;;;;;;3.83;3.63;;;22.00;42.00;;;;;;4996207;28;20800;-78
2021/05/19 12:27:12;;;;;;;4.23;3.97;;;22.00;42.10;;;;;;5013287;28;20412;-79
2021/05/19 12:29:46;;;;;;;4.07;3.77;;;22.00;42.10;;;;;;4996018;28;20424;-77
2021/05/19 12:32:27;;;;;;;4.27;3.93;;;22.00;42.10;;;;;;5012614;28;20421;-76
2021/05/19 12:35:15;;;;;;;4.40;4.00;;;22.00;41.90;;;;;;4995419;28;20792;-80
2021/05/19 12:38:06;;;;;;;4.40;3.77;;;22.10;40.90;;;;;;5013560;28;20407;-78
2021/05/19 12:40:36;;;;;;;4.57;4.10;;;22.00;42.00;;;;;;5032808;28;20480;-78
2021/05/19 12:43:05;;;;;;;5.17;4.33;;;22.00;42.00;;;;;;5012903;28;20438;-77
2021/05/19 12:45:44;;;;;;;4.13;3.80;;;22.00;42.00;;;;;;5031144;28;20926;-77
2021/05/19 12:48:22;;;;;;;4.70;4.00;;;22.00;41.60;;;;;;5032496;28;20411;-78
2021/05/19 12:51:03;;;;;;;7.63;3.87;;;22.00;41.80;;;;;;5014719;28;21084;-80
2021/05/19 12:53:48;;;;;;;5.43;3.97;;;21.90;41.00;;;;;;5015179;28;20414;-79
2021/05/19 12:56:25;;;;;;;6.20;4.20;;;22.00;41.60;;;;;;5011354;28;20433;-78
2021/05/19 12:59:09;;;;;;;5.30;4.00;;;22.00;41.20;;;;;;5015071;28;20168;-79
2021/05/19 13:01:57;;;;;;;5.38;4.40;;;22.00;41.10;;;;;;5013781;28;20405;-77
2021/05/19 13:04:32;;;;;;;4.63;4.23;;;22.00;41.50;;;;;;5014743;28;20227;-78
2021/05/19 13:06:58;;;;;;;6.97;4.90;;;22.00;41.20;;;;;;5008324;28;20432;-78
2021/05/19 13:09:30;;;;;;;7.90;5.70;;;22.00;40.60;;;;;;5013516;28;20419;-78
2021/05/19 13:12:07;;;;;;;7.60;5.20;;;21.90;40.10;;;;;;4995359;28;20205;-78
2021/05/19 13:14:44;;;;;;;5.83;4.90;;;21.90;40.40;;;;;;4994421;28;20420;-79
2021/05/19 13:17:51;;;;;;;7.63;4.60;;;21.90;40.80;;;;;;4994133;28;20482;-78
2021/05/19 13:23:53;;;;;;;8.27;5.10;;;21.90;40.80;;;;;;4989488;28;20861;-76
2021/05/19 13:26:24;;;;;;;7.20;4.87;;;21.90;40.20;;;;;;4993660;28;20413;-77
2021/05/19 13:29:11;;;;;;;7.63;4.97;;;21.90;40.80;;;;;;4993889;28;20455;-78